createdAt,value
2022-07-26T00:01:40.050Z,22.60
2022-07-26T00:04:09.855Z,22.65
2022-07-26T00:06:36.883Z,22.63
2022-07-26T00:09:04.818Z,22.61
2022-07-26T00:11:34.061Z,22.60
2022-07-26T00:14:05.585Z,22.65
2022-07-26T00:16:36.231Z,22.61
2022-07-26T00:19:07.960Z,22.60
2022-07-26T00:21:40.760Z,22.62
2022-07-26T00:24:13.275Z,22.62
2022-07-26T00:26:40.452Z,22.64
2022-07-26T00:29:07.973Z,22.65
2022-07-26T00:31:35.605Z,22.67
2022-07-26T00:34:02.634Z,22.75
2022-07-26T00:36:29.905Z,22.76
2022-07-26T00:38:57.407Z,22.80
2022-07-26T00:41:24.492Z,22.84
2022-07-26T00:43:57.997Z,22.91
2022-07-26T00:46:25.965Z,22.93
2022-07-26T00:48:53.363Z,22.92
2022-07-26T00:51:21.175Z,22.94
2022-07-26T00:53:52.554Z,22.91
2022-07-26T00:56:20.695Z,22.89
2022-07-26T00:58:47.699Z,22.89
2022-07-26T01:01:15.352Z,22.87
2022-07-26T01:03:42.853Z,22.92
2022-07-26T01:06:12.532Z,23.21
2022-07-26T01:08:39.856Z,24.16
2022-07-26T01:11:07.017Z,25.05
2022-07-26T01:13:35.519Z,25.42
2022-07-26T01:16:05.890Z,25.72
2022-07-26T01:18:37.926Z,25.82
2022-07-26T01:21:13.496Z,25.82
2022-07-26T01:23:44.739Z,25.80
2022-07-26T01:26:12.600Z,25.59
2022-07-26T01:28:45.082Z,25.39
2022-07-26T01:31:12.423Z,25.16
2022-07-26T01:33:42.570Z,24.73
2022-07-26T01:36:10.524Z,24.09
2022-07-26T01:38:38.077Z,23.72
2022-07-26T01:41:05.375Z,23.49
2022-07-26T01:43:32.783Z,23.22
2022-07-26T01:46:03.177Z,22.97
2022-07-26T01:48:31.310Z,22.78
2022-07-26T01:50:59.388Z,22.80
2022-07-26T01:53:27.344Z,22.78
2022-07-26T01:55:54.731Z,22.69
2022-07-26T01:58:25.570Z,22.81
2022-07-26T02:00:52.725Z,22.79
2022-07-26T02:03:22.586Z,22.83
2022-07-26T02:05:50.327Z,22.78
2022-07-26T02:08:17.936Z,22.75
2022-07-26T02:11:03.799Z,22.69
2022-07-26T02:13:40.520Z,22.60
2022-07-26T02:16:10.771Z,22.49
2022-07-26T02:18:38.594Z,22.39
2022-07-26T02:21:08.138Z,22.32
2022-07-26T02:23:35.870Z,22.32
2022-07-26T02:26:08.512Z,22.31
2022-07-26T02:28:38.415Z,22.31
2022-07-26T02:31:05.974Z,22.30
2022-07-26T02:33:33.426Z,22.32
2022-07-26T02:36:00.519Z,22.31
2022-07-26T02:38:27.535Z,22.29
2022-07-26T02:40:54.735Z,22.25
2022-07-26T02:43:22.606Z,22.21
2022-07-26T02:46:01.138Z,22.16
2022-07-26T02:48:31.331Z,22.01
2022-07-26T02:50:58.571Z,21.88
2022-07-26T02:53:25.928Z,21.82
2022-07-26T02:55:53.232Z,21.63
2022-07-26T02:58:25.206Z,21.41
2022-07-26T03:00:54.892Z,21.23
2022-07-26T03:03:22.658Z,20.98
2022-07-26T03:05:49.724Z,20.79
2022-07-26T03:08:19.190Z,20.61
2022-07-26T03:10:46.549Z,20.51
2022-07-26T03:13:13.682Z,20.41
2022-07-26T03:15:41.605Z,20.38
2022-07-26T03:18:11.144Z,20.35
2022-07-26T03:20:38.281Z,20.30
2022-07-26T03:23:05.457Z,20.31
2022-07-26T03:25:32.524Z,20.29
2022-07-26T03:28:05.016Z,20.28
2022-07-26T03:30:32.509Z,20.27
2022-07-26T03:32:59.644Z,20.26
2022-07-26T03:35:26.730Z,20.24
2022-07-26T03:37:56.111Z,20.24
2022-07-26T03:40:23.377Z,20.22
2022-07-26T03:42:50.375Z,20.24
2022-07-26T03:45:17.549Z,20.23
2022-07-26T03:47:46.488Z,20.23
2022-07-26T03:50:13.910Z,20.22
2022-07-26T03:52:41.617Z,20.18
2022-07-26T03:55:27.699Z,20.15
2022-07-26T03:57:54.816Z,20.14
2022-07-26T04:00:21.739Z,20.13
2022-07-26T04:02:51.260Z,20.09
2022-07-26T04:05:21.742Z,20.09
2022-07-26T04:07:53.306Z,20.08
2022-07-26T04:10:22.307Z,20.10
2022-07-26T04:12:52.452Z,20.08
2022-07-26T04:15:21.337Z,20.06
2022-07-26T04:17:51.166Z,20.06
2022-07-26T04:20:18.262Z,20.03
2022-07-26T04:22:45.278Z,20.03
2022-07-26T04:25:12.492Z,20.03
2022-07-26T04:27:39.555Z,20.04
2022-07-26T04:30:14.056Z,20.07
2022-07-26T04:32:42.075Z,20.09
2022-07-26T04:35:09.628Z,20.11
2022-07-26T04:37:43.264Z,20.11
2022-07-26T04:40:15.962Z,20.09
2022-07-26T04:42:43.059Z,20.06
2022-07-26T04:45:11.345Z,20.08
2022-07-26T04:47:42.630Z,20.08
2022-07-26T04:50:13.640Z,20.11
2022-07-26T04:52:42.678Z,20.12
2022-07-26T04:55:12.561Z,20.11
2022-07-26T04:57:39.705Z,20.07
2022-07-26T05:00:21.362Z,20.07
2022-07-26T05:02:50.721Z,20.07
2022-07-26T05:05:18.029Z,20.05
2022-07-26T05:07:50.742Z,20.05
2022-07-26T05:10:19.190Z,20.03
2022-07-26T05:12:47.744Z,20.05
2022-07-26T05:15:15.639Z,19.99
2022-07-26T05:17:43.665Z,19.97
2022-07-26T05:20:14.359Z,19.97
2022-07-26T05:22:41.849Z,19.85
2022-07-26T05:25:11.371Z,19.84
2022-07-26T05:27:39.960Z,19.80
2022-07-26T05:30:09.575Z,19.76
2022-07-26T05:32:37.102Z,19.74
2022-07-26T05:35:04.507Z,19.69
2022-07-26T05:37:31.616Z,19.69
2022-07-26T05:39:58.879Z,19.70
2022-07-26T05:42:26.847Z,19.73
2022-07-26T05:44:53.802Z,19.74
2022-07-26T05:47:25.666Z,19.76
2022-07-26T05:49:52.592Z,19.71
2022-07-26T05:52:19.701Z,19.69
2022-07-26T05:54:47.022Z,19.70
2022-07-26T05:57:13.983Z,19.72
2022-07-26T05:59:40.984Z,19.73
2022-07-26T06:02:08.808Z,19.76
2022-07-26T06:04:36.354Z,19.81
2022-07-26T06:07:03.444Z,19.83
2022-07-26T06:09:30.720Z,19.83
2022-07-26T06:11:58.221Z,19.84
2022-07-26T06:14:29.978Z,19.83
2022-07-26T06:16:59.546Z,19.84
2022-07-26T06:19:29.022Z,19.81
2022-07-26T06:21:55.981Z,19.80
2022-07-26T06:24:23.902Z,19.81
2022-07-26T06:26:56.778Z,19.84
2022-07-26T06:29:32.001Z,19.89
2022-07-26T06:31:59.739Z,19.94
2022-07-26T06:34:27.006Z,20.01
2022-07-26T06:36:54.176Z,20.08
2022-07-26T06:39:21.195Z,20.19
2022-07-26T06:41:49.119Z,20.23
2022-07-26T06:44:22.851Z,20.26
2022-07-26T06:46:50.367Z,20.33
2022-07-26T06:49:21.923Z,20.32
2022-07-26T06:51:49.468Z,20.35
2022-07-26T06:54:17.184Z,20.33
2022-07-26T06:56:44.677Z,20.35
2022-07-26T06:59:13.990Z,20.33
2022-07-26T07:01:58.036Z,20.32
2022-07-26T07:04:31.571Z,20.33
2022-07-26T07:07:05.948Z,20.40
2022-07-26T07:09:38.618Z,20.50
2022-07-26T07:12:09.813Z,20.60
2022-07-26T07:14:39.532Z,20.75
2022-07-26T07:17:12.058Z,20.82
2022-07-26T07:19:41.963Z,20.91
2022-07-26T07:22:12.260Z,21.03
2022-07-26T07:24:41.864Z,21.13
2022-07-26T07:27:10.594Z,21.14
2022-07-26T07:29:41.403Z,21.12
2022-07-26T07:32:18.437Z,21.08
2022-07-26T07:34:48.550Z,21.17
2022-07-26T07:37:17.919Z,21.34
2022-07-26T07:39:50.759Z,21.59
2022-07-26T07:42:19.771Z,21.84
2022-07-26T07:44:47.011Z,21.68
2022-07-26T07:47:14.340Z,21.50
2022-07-26T07:49:41.735Z,21.25
2022-07-26T07:52:09.075Z,21.15
2022-07-26T07:54:38.542Z,21.08
2022-07-26T07:57:06.042Z,21.03
2022-07-26T07:59:33.394Z,20.98
2022-07-26T08:02:06.862Z,20.95
2022-07-26T08:04:36.246Z,21.10
2022-07-26T08:07:03.407Z,21.24
2022-07-26T08:09:30.586Z,21.39
2022-07-26T08:12:01.271Z,21.41
2022-07-26T08:14:29.138Z,21.42
2022-07-26T08:16:56.518Z,21.34
2022-07-26T08:19:23.492Z,21.18
2022-07-26T08:21:54.445Z,21.09
2022-07-26T08:24:21.767Z,21.05
2022-07-26T08:26:53.639Z,20.98
2022-07-26T08:29:21.080Z,20.99
2022-07-26T08:31:50.805Z,20.96
2022-07-26T08:34:18.466Z,21.00
2022-07-26T08:37:14.232Z,20.93
2022-07-26T08:39:33.181Z,20.92
2022-07-26T08:42:02.999Z,20.88
2022-07-26T08:44:32.867Z,20.82
2022-07-26T08:47:00.231Z,20.81
2022-07-26T08:49:27.374Z,20.91
2022-07-26T08:51:54.904Z,20.84
2022-07-26T08:54:27.414Z,20.91
2022-07-26T08:56:54.472Z,20.96
2022-07-26T08:59:24.511Z,21.05
2022-07-26T09:01:56.148Z,21.25
2022-07-26T09:04:35.386Z,21.35
2022-07-26T09:07:18.875Z,21.38
2022-07-26T09:09:55.272Z,21.36
2022-07-26T09:12:26.118Z,21.31
2022-07-26T09:14:54.317Z,21.32
2022-07-26T09:17:24.104Z,21.37
2022-07-26T09:20:05.764Z,21.53
2022-07-26T09:22:35.467Z,21.77
2022-07-26T09:25:03.033Z,22.06
2022-07-26T09:27:37.065Z,22.22
2022-07-26T09:30:08.813Z,22.48
2022-07-26T09:32:36.937Z,22.75
2022-07-26T09:35:50.018Z,22.96
2022-07-26T09:38:15.204Z,23.12
2022-07-26T09:40:42.561Z,23.30
2022-07-26T09:43:24.014Z,23.39
2022-07-26T09:46:07.856Z,23.50
2022-07-26T09:49:08.208Z,23.70
2022-07-26T09:51:46.966Z,23.80
2022-07-26T09:54:31.160Z,23.89
2022-07-26T09:56:58.984Z,23.94
2022-07-26T09:59:27.765Z,23.92
2022-07-26T10:01:57.723Z,23.83
2022-07-26T10:04:26.089Z,24.07
2022-07-26T10:06:54.027Z,24.24
2022-07-26T10:09:23.918Z,24.13
2022-07-26T10:11:58.136Z,24.07
2022-07-26T10:14:33.454Z,24.15
2022-07-26T10:17:34.937Z,24.14
2022-07-26T10:20:09.469Z,24.12
2022-07-26T10:22:50.522Z,24.22
2022-07-26T10:25:17.730Z,24.28
2022-07-26T10:27:47.641Z,24.33
2022-07-26T10:30:18.543Z,24.53
2022-07-26T10:33:01.092Z,24.53
2022-07-26T10:35:34.738Z,24.59
2022-07-26T10:38:01.854Z,24.44
2022-07-26T10:40:32.935Z,24.42
2022-07-26T10:43:38.877Z,24.62
2022-07-26T10:46:16.154Z,24.53
2022-07-26T10:49:09.691Z,24.64
2022-07-26T10:51:41.195Z,24.63
2022-07-26T10:54:14.097Z,24.73
2022-07-26T10:56:41.626Z,24.88
2022-07-26T10:59:08.633Z,25.05
2022-07-26T11:01:43.120Z,25.27
2022-07-26T11:04:25.872Z,25.53
2022-07-26T11:07:00.701Z,25.84
2022-07-26T11:09:35.022Z,26.01
2022-07-26T11:12:18.626Z,26.21
2022-07-26T11:14:48.533Z,27.33
2022-07-26T11:17:32.098Z,28.38
2022-07-26T11:19:59.400Z,28.53
2022-07-26T11:22:34.693Z,28.61
2022-07-26T11:25:03.950Z,28.25
2022-07-26T11:27:31.469Z,28.27
2022-07-26T11:30:07.678Z,27.49
2022-07-26T11:32:36.151Z,27.34
2022-07-26T11:35:07.113Z,27.17
2022-07-26T11:37:52.672Z,27.28
2022-07-26T11:40:40.959Z,27.67
2022-07-26T11:43:08.580Z,27.77
2022-07-26T11:45:35.892Z,27.81
2022-07-26T11:48:04.838Z,27.94
2022-07-26T11:50:41.560Z,27.64
2022-07-26T11:53:22.086Z,28.16
2022-07-26T11:55:52.144Z,28.34
2022-07-26T11:58:19.486Z,28.12
2022-07-26T12:00:49.225Z,27.95
2022-07-26T12:03:21.901Z,27.74
2022-07-26T12:06:10.149Z,27.44
2022-07-26T12:08:55.755Z,27.42
2022-07-26T12:11:36.892Z,27.40
2022-07-26T12:14:05.121Z,26.72
2022-07-26T12:16:36.692Z,25.44
2022-07-26T12:19:06.179Z,24.88
2022-07-26T12:21:48.460Z,23.91
2022-07-26T12:24:58.003Z,22.96
2022-07-26T12:27:33.504Z,22.56
2022-07-26T12:30:02.611Z,22.23
2022-07-26T12:32:32.610Z,21.98
2022-07-26T12:35:00.908Z,21.76
2022-07-26T12:37:40.674Z,21.44
2022-07-26T12:40:11.549Z,21.31
2022-07-26T12:43:00.274Z,21.15
2022-07-26T12:45:34.915Z,20.91
2022-07-26T12:48:10.214Z,20.64
2022-07-26T12:50:40.174Z,20.50
2022-07-26T12:53:12.661Z,20.34
2022-07-26T12:55:40.787Z,20.26
2022-07-26T12:58:10.438Z,20.24
2022-07-26T13:00:37.542Z,20.17
2022-07-26T13:03:07.783Z,20.13
2022-07-26T13:05:34.879Z,20.16
2022-07-26T13:08:01.995Z,20.22
2022-07-26T13:10:34.178Z,20.30
2022-07-26T13:13:01.733Z,20.36
2022-07-26T13:15:36.494Z,20.31
2022-07-26T13:18:10.103Z,20.33
2022-07-26T13:20:41.931Z,20.37
2022-07-26T13:23:17.258Z,20.37
2022-07-26T13:25:49.726Z,20.34
2022-07-26T13:28:17.621Z,20.36
2022-07-26T13:30:45.344Z,20.35
2022-07-26T13:33:16.770Z,20.34
2022-07-26T13:35:44.063Z,20.31
2022-07-26T13:38:13.541Z,20.33
2022-07-26T13:40:43.014Z,20.34
2022-07-26T13:43:12.496Z,20.35
2022-07-26T13:45:39.569Z,20.35
2022-07-26T13:48:09.351Z,20.30
2022-07-26T13:50:36.653Z,20.36
2022-07-26T13:53:03.993Z,20.36
2022-07-26T13:55:31.524Z,20.34
2022-07-26T13:57:59.055Z,20.29
2022-07-26T14:00:32.782Z,20.36
2022-07-26T14:03:02.680Z,20.43
2022-07-26T14:05:29.820Z,20.45
2022-07-26T14:07:56.910Z,20.57
2022-07-26T14:10:24.959Z,20.71
2022-07-26T14:12:53.538Z,20.78
2022-07-26T14:15:22.980Z,20.74
2022-07-26T14:17:52.473Z,20.80
2022-07-26T14:20:20.833Z,20.84
2022-07-26T14:22:53.552Z,20.85
2022-07-26T14:25:22.596Z,20.87
2022-07-26T14:27:53.145Z,20.88
2022-07-26T14:30:23.931Z,20.80
2022-07-26T14:32:53.479Z,20.83
2022-07-26T14:35:20.490Z,20.87
2022-07-26T14:37:50.098Z,20.89
2022-07-26T14:40:20.022Z,20.95
2022-07-26T14:42:47.151Z,20.94
2022-07-26T14:45:16.655Z,20.84
2022-07-26T14:47:44.531Z,20.86
2022-07-26T14:50:14.796Z,20.84
2022-07-26T14:52:45.511Z,20.87
2022-07-26T14:55:13.746Z,20.85
2022-07-26T14:57:41.447Z,20.84
2022-07-26T15:00:11.794Z,20.88
2022-07-26T15:02:47.199Z,20.93
2022-07-26T15:05:15.826Z,20.96
2022-07-26T15:07:43.979Z,21.00
2022-07-26T15:10:13.636Z,21.03
2022-07-26T15:12:43.614Z,20.97
2022-07-26T15:15:11.478Z,20.96
2022-07-26T15:17:38.667Z,20.93
2022-07-26T15:20:08.529Z,20.94
2022-07-26T15:22:38.369Z,21.05
2022-07-26T15:25:09.039Z,21.18
2022-07-26T15:27:38.735Z,21.16
2022-07-26T15:30:13.564Z,21.09
2022-07-26T15:32:44.477Z,21.12
2022-07-26T15:35:16.185Z,21.30
2022-07-26T15:37:48.157Z,21.33
2022-07-26T15:40:15.451Z,21.32
2022-07-26T15:42:44.291Z,21.23
2022-07-26T15:45:13.459Z,21.20
2022-07-26T15:47:54.956Z,21.18
2022-07-26T15:50:27.349Z,21.10
2022-07-26T15:52:54.601Z,21.03
2022-07-26T15:55:21.874Z,21.16
2022-07-26T15:57:49.272Z,21.20
2022-07-26T16:00:16.978Z,21.16
2022-07-26T16:02:44.312Z,21.10
2022-07-26T16:05:12.256Z,21.11
2022-07-26T16:07:44.127Z,21.02
2022-07-26T16:10:13.671Z,21.02
2022-07-26T16:12:42.009Z,20.88
2022-07-26T16:15:12.248Z,20.86
2022-07-26T16:17:40.612Z,20.78
2022-07-26T16:20:10.924Z,20.70
2022-07-26T16:22:41.278Z,20.53
2022-07-26T16:25:13.685Z,20.53
2022-07-26T16:27:43.949Z,20.41
2022-07-26T16:30:15.551Z,20.41
2022-07-26T16:32:43.420Z,20.35
2022-07-26T16:35:11.923Z,20.32
2022-07-26T16:37:39.914Z,20.33
2022-07-26T16:40:08.959Z,20.31
2022-07-26T16:42:36.660Z,20.33
2022-07-26T16:45:04.710Z,20.35
2022-07-26T16:47:32.245Z,20.42
2022-07-26T16:50:12.025Z,20.57
2022-07-26T16:52:39.397Z,20.72
2022-07-26T16:55:15.436Z,20.83
2022-07-26T16:57:43.038Z,20.92
2022-07-26T17:00:17.959Z,20.89
2022-07-26T17:02:45.524Z,20.88
2022-07-26T17:05:12.881Z,20.80
2022-07-26T17:07:40.112Z,20.74
2022-07-26T17:10:09.363Z,20.71
2022-07-26T17:12:37.105Z,20.62
2022-07-26T17:15:05.389Z,20.55
2022-07-26T17:17:35.346Z,20.47
2022-07-26T17:20:02.975Z,20.45
2022-07-26T17:22:30.255Z,20.37
2022-07-26T17:24:57.614Z,20.36
2022-07-26T17:27:24.773Z,20.31
2022-07-26T17:30:14.840Z,20.26
2022-07-26T17:32:44.574Z,20.20
2022-07-26T17:35:11.966Z,20.14
2022-07-26T17:37:42.656Z,20.10
2022-07-26T17:40:11.008Z,20.06
2022-07-26T17:42:38.774Z,20.04
2022-07-26T17:45:09.789Z,20.02
2022-07-26T17:47:37.529Z,19.98
2022-07-26T17:50:35.355Z,19.92
2022-07-26T17:52:55.441Z,19.83
2022-07-26T17:55:22.905Z,19.75
2022-07-26T17:57:51.287Z,19.75
2022-07-26T18:00:20.627Z,19.70
2022-07-26T18:02:52.685Z,19.64
2022-07-26T18:05:20.708Z,19.55
2022-07-26T18:07:47.931Z,19.51
2022-07-26T18:10:15.233Z,19.50
2022-07-26T18:12:45.224Z,19.44
2022-07-26T18:15:12.796Z,19.38
2022-07-26T18:17:40.252Z,19.34
2022-07-26T18:20:11.034Z,19.26
2022-07-26T18:22:39.034Z,19.20
2022-07-26T18:25:09.333Z,19.17
2022-07-26T18:27:41.468Z,19.09
2022-07-26T18:30:09.099Z,19.02
2022-07-26T18:32:36.521Z,18.97
2022-07-26T18:35:04.001Z,18.92
2022-07-26T18:37:33.762Z,18.85
2022-07-26T18:40:02.225Z,18.77
2022-07-26T18:42:29.488Z,18.72
2022-07-26T18:44:56.743Z,18.66
2022-07-26T18:47:29.424Z,18.60
2022-07-26T18:49:59.613Z,18.53
2022-07-26T18:52:31.891Z,18.46
2022-07-26T18:55:07.108Z,18.41
2022-07-26T18:57:36.354Z,18.36
2022-07-26T19:00:15.777Z,18.30
2022-07-26T19:02:45.072Z,18.28
2022-07-26T19:05:14.470Z,18.26
2022-07-26T19:07:41.474Z,18.23
2022-07-26T19:10:10.483Z,18.21
2022-07-26T19:12:43.801Z,18.23
2022-07-26T19:15:11.389Z,18.23
2022-07-26T19:17:38.657Z,18.22
2022-07-26T19:20:09.696Z,18.16
2022-07-26T19:22:39.475Z,18.14
2022-07-26T19:25:10.930Z,18.12
2022-07-26T19:27:40.850Z,18.10
2022-07-26T19:30:09.794Z,18.05
2022-07-26T19:32:38.002Z,18.08
2022-07-26T19:35:06.779Z,18.04
2022-07-26T19:37:33.806Z,18.02
2022-07-26T19:40:04.345Z,17.94
2022-07-26T19:42:33.791Z,17.88
2022-07-26T19:45:01.173Z,17.89
2022-07-26T19:47:29.988Z,17.86
2022-07-26T19:50:00.281Z,17.82
2022-07-26T19:52:32.424Z,17.78
2022-07-26T19:54:59.623Z,17.76
2022-07-26T19:57:29.504Z,17.73
2022-07-26T19:59:56.664Z,17.72
2022-07-26T20:02:24.127Z,17.72
2022-07-26T20:04:52.239Z,17.71
2022-07-26T20:07:24.564Z,17.70
2022-07-26T20:09:51.940Z,17.67
2022-07-26T20:12:20.246Z,17.68
2022-07-26T20:14:47.592Z,17.72
2022-07-26T20:17:14.773Z,17.68
2022-07-26T20:19:42.585Z,17.67
2022-07-26T20:22:09.669Z,17.66
2022-07-26T20:24:38.362Z,17.62
2022-07-26T20:27:08.549Z,17.61
2022-07-26T20:29:36.418Z,17.55
2022-07-26T20:32:04.121Z,17.52
2022-07-26T20:34:31.362Z,17.49
2022-07-26T20:36:58.534Z,17.47
2022-07-26T20:39:27.850Z,17.46
2022-07-26T20:41:55.374Z,17.44
2022-07-26T20:44:28.187Z,17.41
2022-07-26T20:46:55.837Z,17.38
2022-07-26T20:49:23.256Z,17.37
2022-07-26T20:51:55.869Z,17.33
2022-07-26T20:54:22.878Z,17.27
2022-07-26T20:56:50.315Z,17.21
2022-07-26T20:59:17.379Z,17.15
2022-07-26T21:01:46.992Z,17.13
2022-07-26T21:04:17.130Z,17.09
2022-07-26T21:06:47.302Z,17.06
2022-07-26T21:09:18.541Z,17.01
2022-07-26T21:11:45.566Z,16.97
2022-07-26T21:14:12.548Z,16.94
2022-07-26T21:16:40.317Z,16.93
2022-07-26T21:19:07.825Z,16.93
2022-07-26T21:21:37.110Z,16.94
2022-07-26T21:24:06.050Z,16.96
2022-07-26T21:26:33.379Z,17.00
2022-07-26T21:29:02.481Z,16.95
2022-07-26T21:31:29.941Z,16.95
2022-07-26T21:33:57.099Z,16.92
2022-07-26T21:36:24.566Z,16.89
2022-07-26T21:38:54.474Z,16.89
2022-07-26T21:41:21.498Z,16.91
2022-07-26T21:43:50.978Z,16.93
2022-07-26T21:46:18.196Z,16.95
2022-07-26T21:48:45.242Z,16.95
2022-07-26T21:51:12.392Z,16.88
2022-07-26T21:53:39.874Z,16.86
2022-07-26T21:56:06.992Z,16.84
2022-07-26T21:58:39.096Z,16.81
2022-07-26T22:01:08.075Z,16.80
2022-07-26T22:03:36.392Z,16.78
2022-07-26T22:06:04.678Z,16.76
2022-07-26T22:08:34.282Z,16.75
2022-07-26T22:11:02.034Z,16.74
2022-07-26T22:13:29.103Z,16.76
2022-07-26T22:15:59.087Z,16.78
2022-07-26T22:18:28.830Z,16.77
2022-07-26T22:20:56.317Z,16.74
2022-07-26T22:23:27.603Z,16.75
2022-07-26T22:25:57.231Z,16.81
2022-07-26T22:28:24.581Z,16.86
2022-07-26T22:30:51.941Z,16.88
2022-07-26T22:33:19.530Z,16.88
2022-07-26T22:35:47.224Z,16.85
2022-07-26T22:38:14.872Z,16.85
2022-07-26T22:40:42.710Z,16.81
2022-07-26T22:43:12.699Z,16.79
2022-07-26T22:45:39.777Z,16.80
2022-07-26T22:48:10.199Z,16.86
2022-07-26T22:50:37.473Z,16.86
2022-07-26T22:53:05.243Z,16.83
2022-07-26T22:55:32.417Z,16.86
2022-07-26T22:58:00.117Z,16.85
2022-07-26T23:00:27.185Z,16.86
2022-07-26T23:02:56.666Z,16.84
2022-07-26T23:05:26.594Z,16.85
2022-07-26T23:08:43.893Z,16.86
2022-07-26T23:10:58.979Z,16.88
2022-07-26T23:13:26.185Z,16.92
2022-07-26T23:16:00.320Z,16.95
2022-07-26T23:18:30.074Z,16.98
2022-07-26T23:20:57.481Z,17.02
2022-07-26T23:23:28.518Z,17.07
2022-07-26T23:25:58.485Z,17.07
2022-07-26T23:28:36.782Z,17.10
2022-07-26T23:31:14.944Z,17.15
2022-07-26T23:33:52.634Z,17.14
2022-07-26T23:36:27.175Z,17.16
2022-07-26T23:38:55.817Z,17.14
2022-07-26T23:41:23.694Z,17.15
2022-07-26T23:43:51.202Z,17.13
2022-07-26T23:46:20.731Z,17.11
2022-07-26T23:48:48.411Z,17.11
2022-07-26T23:51:15.482Z,17.11
2022-07-26T23:53:44.867Z,17.13
2022-07-26T23:56:12.407Z,17.14
2022-07-26T23:58:39.602Z,17.14
